Time;durP1;ratioP1;P1;durP2;ratioP2;P2;SDS_P1;SDS_P2;PMS_P1;PMS_P2;Temp;Humidity;BMP_temperature;BMP_pressure;BME280_temperature;BME280_humidity;BME280_pressure;Samples;Min_cycle;Max_cycle;Signal;HPM_P1;HPM_P2
2021/08/15 00:01:52;;;;;;;11.60;10.20;;;22.60;97.10;;;;;;5072318;28;20523;-71
2021/08/15 00:04:21;;;;;;;17.63;10.37;;;22.60;97.00;;;;;;5072455;28;20487;-69
2021/08/15 00:06:50;;;;;;;13.93;11.17;;;22.60;96.70;;;;;;5075378;28;20527;-70
2021/08/15 00:09:17;;;;;;;20.47;11.70;;;22.50;96.70;;;;;;5075827;28;20964;-68
2021/08/15 00:11:43;;;;;;;18.03;11.20;;;22.50;96.70;;;;;;5075910;28;20794;-68
2021/08/15 00:14:10;;;;;;;19.33;11.00;;;22.50;96.70;;;;;;5076208;28;20531;-68
2021/08/15 00:16:37;;;;;;;15.17;10.13;;;22.40;96.80;;;;;;5075813;28;20566;-68
2021/08/15 00:19:05;;;;;;;20.47;11.80;;;22.40;97.00;;;;;;5075989;28;20854;-69
2021/08/15 00:21:33;;;;;;;15.50;11.23;;;22.40;97.00;;;;;;5075825;28;20443;-68
2021/08/15 00:24:02;;;;;;;19.03;11.77;;;22.30;97.00;;;;;;5075860;28;20519;-68
2021/08/15 00:26:29;;;;;;;15.93;12.80;;;22.30;97.20;;;;;;5075612;28;20460;-68
2021/08/15 00:28:57;;;;;;;17.30;13.03;;;22.20;97.20;;;;;;5075794;28;20984;-68
2021/08/15 00:31:26;;;;;;;17.97;10.63;;;22.20;97.30;;;;;;5075822;28;20427;-68
2021/08/15 00:33:54;;;;;;;15.63;10.20;;;22.20;97.40;;;;;;5075664;28;20531;-68
2021/08/15 00:36:23;;;;;;;22.23;12.30;;;22.20;97.30;;;;;;5075594;28;20432;-69
2021/08/15 00:38:51;;;;;;;16.30;13.40;;;22.30;97.40;;;;;;5075445;28;20826;-69
2021/08/15 00:41:19;;;;;;;18.43;12.10;;;22.30;97.20;;;;;;5075598;28;20472;-68
2021/08/15 00:43:46;;;;;;;19.33;12.27;;;22.30;97.00;;;;;;5072882;28;20472;-68
2021/08/15 00:46:14;;;;;;;24.40;11.47;;;22.40;96.90;;;;;;5075428;28;20526;-69
2021/08/15 00:48:42;;;;;;;21.93;10.03;;;22.40;96.90;;;;;;5074825;28;20504;-68
2021/08/15 00:51:09;;;;;;;11.80;10.03;;;22.40;96.70;;;;;;5074983;28;20536;-68
2021/08/15 00:53:37;;;;;;;19.70;11.13;;;22.40;96.60;;;;;;5075029;28;20444;-68
2021/08/15 00:56:05;;;;;;;16.43;11.33;;;22.40;96.50;;;;;;5075217;28;20842;-68
2021/08/15 00:58:34;;;;;;;14.77;11.30;;;22.30;96.60;;;;;;5075082;28;20565;-68
2021/08/15 01:01:02;;;;;;;14.50;10.73;;;22.30;96.90;;;;;;5075054;28;20471;-68
2021/08/15 01:03:29;;;;;;;15.53;9.57;;;22.20;96.90;;;;;;5074979;28;20478;-68
2021/08/15 01:05:56;;;;;;;10.70;9.37;;;22.20;96.90;;;;;;5075117;28;20511;-69
2021/08/15 01:08:23;;;;;;;14.50;10.40;;;22.20;96.80;;;;;;5074920;28;20474;-68
2021/08/15 01:10:50;;;;;;;13.20;9.03;;;22.20;96.70;;;;;;5074984;28;20523;-68
2021/08/15 01:13:17;;;;;;;17.43;10.23;;;22.30;96.60;;;;;;5075049;28;20522;-68
2021/08/15 01:15:45;;;;;;;13.30;9.70;;;22.30;96.50;;;;;;5074894;28;20527;-69
2021/08/15 01:18:24;;;;;;;15.20;10.00;;;22.30;96.40;;;;;;5073513;28;20562;-73
2021/08/15 01:20:57;;;;;;;15.50;9.90;;;22.40;96.30;;;;;;5074828;28;20424;-67
2021/08/15 01:23:24;;;;;;;14.50;10.43;;;22.30;96.20;;;;;;5074578;28;20444;-68
2021/08/15 01:25:51;;;;;;;16.93;9.97;;;22.30;96.30;;;;;;5074279;28;20534;-68
2021/08/15 01:28:21;;;;;;;12.40;9.40;;;22.30;96.10;;;;;;5073947;28;20432;-68
2021/08/15 01:30:49;;;;;;;14.10;10.40;;;22.30;95.80;;;;;;5074562;28;20969;-68
2021/08/15 01:33:25;;;;;;;12.53;11.10;;;22.30;95.90;;;;;;5074620;28;20478;-68
2021/08/15 01:35:53;;;;;;;14.70;9.20;;;22.20;95.90;;;;;;5074267;28;20561;-68
2021/08/15 01:38:20;;;;;;;11.30;9.70;;;22.20;95.90;;;;;;5072411;28;20475;-68
2021/08/15 01:40:47;;;;;;;13.00;9.93;;;22.20;95.80;;;;;;5073969;28;20467;-68
2021/08/15 01:43:14;;;;;;;11.23;8.73;;;22.10;95.80;;;;;;5074043;28;20490;-68
2021/08/15 01:45:43;;;;;;;13.90;10.10;;;22.10;95.90;;;;;;5074308;28;20526;-73
2021/08/15 01:48:10;;;;;;;13.13;9.27;;;22.10;96.10;;;;;;5074360;28;20918;-68
2021/08/15 01:50:37;;;;;;;15.20;10.37;;;22.10;96.00;;;;;;5074177;28;20519;-68
2021/08/15 01:53:09;;;;;;;11.60;9.67;;;22.00;96.10;;;;;;5074004;28;20922;-68
2021/08/15 01:55:37;;;;;;;12.10;9.87;;;22.00;96.20;;;;;;5074235;28;20432;-68
2021/08/15 01:58:10;;;;;;;13.83;10.00;;;22.00;96.30;;;;;;5073750;28;20487;-68
2021/08/15 02:00:38;;;;;;;14.37;10.00;;;21.90;96.10;;;;;;5073132;28;20447;-68
2021/08/15 02:03:08;;;;;;;11.50;9.17;;;21.90;96.00;;;;;;5072370;28;21002;-70
2021/08/15 02:05:36;;;;;;;12.73;10.90;;;21.90;96.10;;;;;;5073771;28;20436;-68
2021/08/15 02:08:04;;;;;;;11.57;8.90;;;21.90;96.20;;;;;;5073776;28;20522;-68
2021/08/15 02:10:32;;;;;;;14.07;9.40;;;21.90;96.30;;;;;;5073817;28;20432;-68
2021/08/15 02:13:01;;;;;;;14.43;10.50;;;21.90;96.20;;;;;;5073774;28;20497;-68
2021/08/15 02:15:28;;;;;;;15.83;10.10;;;21.80;96.10;;;;;;5073722;28;20514;-67
2021/08/15 02:17:55;;;;;;;13.20;10.30;;;21.80;96.30;;;;;;5073318;28;21004;-68
2021/08/15 02:20:29;;;;;;;15.07;10.30;;;21.70;96.40;;;;;;5072882;28;20528;-68
2021/08/15 02:22:57;;;;;;;16.80;10.27;;;21.70;96.50;;;;;;5072981;28;20792;-68
2021/08/15 02:25:25;;;;;;;13.43;10.30;;;21.70;96.60;;;;;;5073460;28;21012;-68
2021/08/15 02:27:52;;;;;;;15.17;10.83;;;21.70;96.80;;;;;;5073098;28;20518;-69
2021/08/15 02:30:22;;;;;;;15.00;9.90;;;21.70;96.80;;;;;;5073478;28;20518;-69
2021/08/15 02:32:50;;;;;;;16.63;9.97;;;21.70;96.80;;;;;;5073474;28;20949;-68
2021/08/15 02:35:17;;;;;;;13.60;10.03;;;21.70;96.80;;;;;;5073356;28;20957;-69
2021/08/15 02:37:48;;;;;;;13.47;9.57;;;21.70;96.80;;;;;;5073119;28;20558;-68
2021/08/15 02:40:16;;;;;;;15.50;9.63;;;21.70;96.60;;;;;;5073347;28;20446;-68
2021/08/15 02:42:44;;;;;;;16.27;10.43;;;21.70;96.40;;;;;;5072725;28;20524;-69
2021/08/15 02:45:13;;;;;;;14.50;9.83;;;21.60;96.30;;;;;;5073331;28;20511;-68
2021/08/15 02:47:41;;;;;;;10.60;9.30;;;21.60;96.20;;;;;;5072927;28;20475;-68
2021/08/15 02:50:09;;;;;;;11.97;9.33;;;21.60;96.30;;;;;;5073258;28;20436;-68
2021/08/15 02:52:36;;;;;;;14.17;9.93;;;21.50;96.40;;;;;;5072295;28;20468;-68
2021/08/15 02:55:09;;;;;;;18.37;11.13;;;21.50;96.60;;;;;;5073129;28;20523;-68
2021/08/15 02:57:36;;;;;;;12.67;9.17;;;21.50;96.80;;;;;;5073075;28;20530;-68
2021/08/15 03:00:04;;;;;;;12.80;10.33;;;21.50;96.50;;;;;;5072928;28;20431;-70
2021/08/15 03:02:31;;;;;;;15.57;9.63;;;21.40;96.50;;;;;;5072872;28;21010;-68
2021/08/15 03:04:58;;;;;;;13.70;10.40;;;21.40;96.50;;;;;;5072826;28;20483;-68
2021/08/15 03:07:26;;;;;;;18.13;9.63;;;21.40;96.60;;;;;;5071746;28;20519;-68
2021/08/15 03:09:53;;;;;;;13.30;10.03;;;21.40;96.90;;;;;;5072647;28;20827;-68
2021/08/15 03:12:25;;;;;;;13.27;11.90;;;21.30;96.90;;;;;;5072315;28;20432;-67
2021/08/15 03:14:52;;;;;;;13.50;9.80;;;21.30;97.00;;;;;;5072814;28;20444;-68
2021/08/15 03:17:19;;;;;;;18.83;10.40;;;21.30;96.90;;;;;;5072897;28;20471;-67
2021/08/15 03:19:46;;;;;;;15.73;9.97;;;21.40;96.80;;;;;;5073288;28;20531;-68
2021/08/15 03:22:13;;;;;;;11.27;9.47;;;21.40;96.80;;;;;;5073058;28;20443;-69
2021/08/15 03:24:40;;;;;;;17.30;9.80;;;21.40;96.70;;;;;;5072962;28;20487;-68
2021/08/15 03:27:07;;;;;;;10.67;9.00;;;21.30;96.90;;;;;;5072533;28;20543;-67
2021/08/15 03:29:35;;;;;;;13.87;10.03;;;21.30;96.90;;;;;;5072879;28;20468;-68
2021/08/15 03:32:02;;;;;;;16.17;8.80;;;21.30;97.10;;;;;;5072889;28;20515;-68
2021/08/15 03:34:29;;;;;;;17.60;11.00;;;21.30;97.10;;;;;;5072733;28;20849;-68
2021/08/15 03:36:58;;;;;;;16.97;10.33;;;21.20;96.90;;;;;;5072014;28;20964;-68
2021/08/15 03:39:29;;;;;;;15.13;9.60;;;21.20;97.10;;;;;;5072700;28;20483;-68
2021/08/15 03:41:58;;;;;;;18.73;10.50;;;21.20;97.00;;;;;;5076272;28;20436;-68
2021/08/15 03:44:26;;;;;;;14.83;10.63;;;21.20;97.00;;;;;;5074682;28;20543;-68
2021/08/15 03:46:55;;;;;;;15.10;8.73;;;21.20;97.00;;;;;;5076325;28;20509;-68
2021/08/15 03:49:22;;;;;;;13.50;10.67;;;21.10;97.20;;;;;;5075523;28;20436;-68
2021/08/15 03:51:49;;;;;;;15.90;9.37;;;21.00;97.30;;;;;;5076378;28;20518;-68
2021/08/15 03:54:19;;;;;;;14.20;10.00;;;21.10;97.30;;;;;;5075687;28;20439;-68
2021/08/15 03:56:47;;;;;;;20.87;11.30;;;21.00;96.80;;;;;;5076743;28;20836;-68
2021/08/15 03:59:14;;;;;;;15.00;10.43;;;21.00;96.80;;;;;;5076041;28;20501;-68
2021/08/15 04:01:41;;;;;;;17.50;10.00;;;21.00;97.00;;;;;;5074402;28;20932;-68
2021/08/15 04:04:12;;;;;;;15.83;9.33;;;21.10;97.00;;;;;;5076318;28;20998;-68
2021/08/15 04:06:39;;;;;;;17.30;9.37;;;21.00;97.00;;;;;;5075416;28;20986;-70
2021/08/15 04:09:07;;;;;;;15.03;9.60;;;21.10;96.90;;;;;;5075901;28;20498;-68
2021/08/15 04:11:34;;;;;;;13.90;9.17;;;21.10;96.90;;;;;;5075544;28;20436;-70
2021/08/15 04:14:03;;;;;;;12.47;8.87;;;21.00;96.90;;;;;;5074966;28;20444;-68
2021/08/15 04:16:30;;;;;;;14.43;8.57;;;21.00;96.80;;;;;;5076086;28;20483;-68
2021/08/15 04:18:57;;;;;;;12.20;10.03;;;21.00;96.80;;;;;;5075584;28;20973;-67
2021/08/15 04:21:25;;;;;;;10.87;8.90;;;21.00;96.80;;;;;;5075939;28;20440;-68
2021/08/15 04:23:52;;;;;;;13.10;9.10;;;20.90;96.70;;;;;;5075522;28;20926;-68
2021/08/15 04:26:19;;;;;;;13.67;9.23;;;20.90;96.60;;;;;;5075692;28;20522;-68
2021/08/15 04:28:46;;;;;;;17.90;9.10;;;20.90;96.70;;;;;;5075666;28;20428;-68
2021/08/15 04:31:14;;;;;;;12.60;8.60;;;20.80;96.60;;;;;;5075707;28;20531;-69
2021/08/15 04:33:41;;;;;;;12.50;9.07;;;20.80;96.50;;;;;;5075668;28;20538;-68
2021/08/15 04:36:08;;;;;;;13.80;9.00;;;20.70;96.70;;;;;;5075702;28;20476;-68
2021/08/15 04:38:36;;;;;;;12.27;9.73;;;20.70;96.90;;;;;;5074827;28;20897;-67
2021/08/15 04:41:05;;;;;;;13.57;9.20;;;20.70;97.10;;;;;;5075574;28;20440;-68
2021/08/15 04:43:32;;;;;;;12.37;9.37;;;20.70;97.40;;;;;;5075569;28;20531;-68
2021/08/15 04:46:01;;;;;;;13.70;10.00;;;20.60;97.60;;;;;;5075376;28;20771;-68
2021/08/15 04:48:28;;;;;;;15.43;9.87;;;20.60;97.90;;;;;;5074661;28;20436;-67
2021/08/15 04:50:55;;;;;;;20.30;9.60;;;20.60;98.00;;;;;;5075164;28;20440;-69
2021/08/15 04:53:22;;;;;;;14.43;9.30;;;20.60;98.20;;;;;;5074067;28;20432;-68
2021/08/15 04:55:51;;;;;;;14.03;9.73;;;20.70;98.30;;;;;;5075285;28;20440;-68
2021/08/15 04:58:17;;;;;;;19.70;9.27;;;20.70;98.00;;;;;;5075078;28;20511;-68
2021/08/15 05:00:44;;;;;;;13.43;9.17;;;20.80;98.10;;;;;;5075201;28;20526;-68
2021/08/15 05:03:15;;;;;;;12.70;8.40;;;20.90;97.80;;;;;;5075040;28;20526;-68
2021/08/15 05:05:41;;;;;;;11.70;9.77;;;20.90;97.80;;;;;;5074815;28;20452;-68
2021/08/15 05:08:09;;;;;;;14.90;9.67;;;21.00;97.70;;;;;;5074721;28;20515;-68
2021/08/15 05:10:36;;;;;;;12.30;9.53;;;21.00;97.40;;;;;;5074933;28;20440;-68
2021/08/15 05:13:04;;;;;;;18.43;9.97;;;21.00;97.30;;;;;;5074964;28;20940;-68
2021/08/15 05:15:31;;;;;;;16.43;9.33;;;21.00;97.30;;;;;;5073924;28;20930;-68
2021/08/15 05:17:59;;;;;;;13.83;9.70;;;21.00;97.40;;;;;;5073974;28;20467;-68
2021/08/15 05:20:26;;;;;;;19.27;10.20;;;21.00;97.50;;;;;;5074562;28;20442;-68
2021/08/15 05:22:53;;;;;;;14.07;9.80;;;21.00;97.50;;;;;;5074490;28;20996;-68
2021/08/15 05:25:20;;;;;;;16.63;9.83;;;21.10;97.50;;;;;;5073964;28;20436;-68
2021/08/15 05:27:47;;;;;;;13.30;9.10;;;21.20;97.50;;;;;;5074045;28;20464;-68
2021/08/15 05:30:16;;;;;;;13.60;9.50;;;21.20;97.30;;;;;;5073016;28;20768;-68
2021/08/15 05:32:43;;;;;;;15.60;10.57;;;21.20;97.40;;;;;;5074758;28;20820;-67
2021/08/15 05:35:11;;;;;;;17.63;10.93;;;21.30;97.20;;;;;;5073484;28;20464;-68
2021/08/15 05:37:40;;;;;;;18.17;11.47;;;21.40;97.30;;;;;;5074577;28;20521;-68
2021/08/15 05:40:09;;;;;;;17.93;10.40;;;21.50;97.00;;;;;;5074500;28;20566;-68
2021/08/15 05:42:36;;;;;;;18.73;9.43;;;21.50;97.30;;;;;;5074613;28;20444;-68
2021/08/15 05:45:03;;;;;;;14.47;10.00;;;21.70;97.70;;;;;;5072931;28;20511;-68
2021/08/15 05:47:31;;;;;;;15.63;9.43;;;21.80;97.80;;;;;;5074343;28;20522;-67
2021/08/15 05:49:58;;;;;;;10.93;9.10;;;21.80;97.50;;;;;;5074377;28;20526;-68
2021/08/15 05:52:26;;;;;;;20.90;11.40;;;22.00;97.40;;;;;;5074277;28;20436;-68
2021/08/15 05:54:55;;;;;;;16.23;9.70;;;22.10;97.20;;;;;;5073372;28;20934;-68
2021/08/15 05:57:21;;;;;;;16.30;11.07;;;22.20;97.10;;;;;;5074127;28;20440;-70
2021/08/15 05:59:49;;;;;;;11.60;9.90;;;22.30;97.00;;;;;;5073707;28;20522;-69
2021/08/15 06:02:16;;;;;;;13.97;10.40;;;22.40;96.90;;;;;;5074134;28;20440;-68
2021/08/15 06:04:44;;;;;;;18.03;10.00;;;22.50;96.80;;;;;;5073356;28;20863;-68
2021/08/15 06:07:13;;;;;;;16.43;10.27;;;22.60;96.50;;;;;;5074030;28;20520;-68
2021/08/15 06:09:40;;;;;;;18.57;11.27;;;22.70;96.40;;;;;;5073906;28;20451;-68
2021/08/15 06:12:07;;;;;;;13.40;9.00;;;22.80;96.20;;;;;;5073780;28;20829;-68
2021/08/15 06:14:35;;;;;;;15.13;9.80;;;22.90;95.10;;;;;;5073844;28;20949;-68
2021/08/15 06:17:04;;;;;;;13.80;9.27;;;23.00;94.80;;;;;;5073723;28;20490;-68
2021/08/15 06:19:31;;;;;;;12.23;9.30;;;23.10;94.70;;;;;;5072227;28;21028;-68
2021/08/15 06:22:00;;;;;;;14.80;8.60;;;23.20;94.70;;;;;;5073640;28;20506;-68
2021/08/15 06:24:27;;;;;;;15.40;9.20;;;23.30;94.00;;;;;;5072574;28;20444;-68
2021/08/15 06:26:54;;;;;;;12.77;8.23;;;23.40;94.20;;;;;;5073009;28;20464;-68
2021/08/15 06:29:21;;;;;;;18.93;9.43;;;23.40;93.70;;;;;;5073604;28;21014;-68
2021/08/15 06:31:48;;;;;;;12.97;8.57;;;23.50;93.60;;;;;;5073198;28;20527;-68
2021/08/15 06:34:18;;;;;;;15.00;9.47;;;23.60;93.40;;;;;;5072898;28;20519;-68
2021/08/15 06:36:45;;;;;;;13.90;8.63;;;23.80;93.60;;;;;;5073373;28;20516;-69
2021/08/15 06:39:14;;;;;;;18.10;8.57;;;23.80;93.10;;;;;;5073577;28;20571;-68
2021/08/15 06:41:42;;;;;;;12.17;9.40;;;24.00;93.50;;;;;;5073459;28;20530;-68
2021/08/15 06:44:09;;;;;;;13.63;9.10;;;24.10;93.80;;;;;;5073401;28;20531;-68
2021/08/15 06:46:36;;;;;;;14.17;10.37;;;24.30;94.10;;;;;;5072704;28;20829;-68
2021/08/15 06:49:03;;;;;;;15.30;9.23;;;24.40;93.90;;;;;;5073390;28;20839;-68
2021/08/15 06:51:30;;;;;;;15.00;9.13;;;24.50;93.90;;;;;;5073325;28;20532;-68
2021/08/15 06:53:57;;;;;;;14.57;9.90;;;24.60;93.90;;;;;;5073318;28;20481;-68
2021/08/15 06:56:25;;;;;;;16.00;8.43;;;24.80;93.80;;;;;;5072243;28;20475;-68
2021/08/15 06:58:52;;;;;;;14.50;9.47;;;24.90;93.80;;;;;;5073035;28;20984;-68
2021/08/15 07:01:19;;;;;;;11.80;7.97;;;25.10;93.30;;;;;;5073233;28;20531;-67
2021/08/15 07:03:46;;;;;;;11.57;9.03;;;25.20;91.70;;;;;;5073137;28;20533;-69
2021/08/15 07:06:13;;;;;;;11.70;8.67;;;25.30;91.60;;;;;;5073042;28;20479;-69
2021/08/15 07:08:40;;;;;;;13.50;8.57;;;25.40;91.60;;;;;;5069396;28;20474;-68
2021/08/15 07:11:07;;;;;;;11.60;7.47;;;25.60;91.10;;;;;;5069483;28;20427;-68
2021/08/15 07:13:35;;;;;;;17.37;9.10;;;25.70;90.70;;;;;;5071457;28;20950;-69
2021/08/15 07:16:04;;;;;;;19.50;8.80;;;25.80;90.50;;;;;;5072826;28;20479;-68
2021/08/15 07:18:31;;;;;;;14.70;8.83;;;26.00;90.70;;;;;;5075464;28;20494;-68
2021/08/15 07:21:02;;;;;;;12.73;9.13;;;26.10;90.90;;;;;;5074480;28;20522;-68
2021/08/15 07:23:29;;;;;;;13.10;9.43;;;26.30;90.80;;;;;;5075107;28;20456;-69
2021/08/15 07:25:56;;;;;;;10.63;8.90;;;26.40;90.80;;;;;;5074622;28;20546;-68
2021/08/15 07:28:28;;;;;;;17.97;8.60;;;26.50;90.40;;;;;;5075709;28;20444;-67
2021/08/15 07:30:56;;;;;;;12.80;9.60;;;26.70;89.40;;;;;;5075235;28;20535;-69
2021/08/15 07:33:23;;;;;;;12.40;7.90;;;26.80;89.20;;;;;;5075447;28;20512;-68
2021/08/15 07:35:50;;;;;;;12.33;8.47;;;26.90;88.80;;;;;;5075104;28;20448;-70
2021/08/15 07:38:18;;;;;;;12.77;8.53;;;27.00;86.30;;;;;;5074562;28;20969;-68
2021/08/15 07:40:44;;;;;;;17.90;9.07;;;27.20;86.30;;;;;;5074961;28;20562;-69
2021/08/15 07:43:15;;;;;;;20.53;9.60;;;27.30;86.90;;;;;;5074700;28;20463;-68
2021/08/15 07:45:43;;;;;;;13.63;9.03;;;27.50;87.00;;;;;;5072988;28;20523;-68
2021/08/15 07:48:11;;;;;;;15.83;9.10;;;27.60;84.60;;;;;;5074403;28;20489;-68
2021/08/15 07:50:39;;;;;;;9.23;7.40;;;27.70;84.20;;;;;;5074723;28;20451;-68
2021/08/15 07:53:19;;;;;;;17.60;7.00;;;27.90;84.60;;;;;;5074254;28;20442;-68
2021/08/15 07:55:47;;;;;;;16.60;9.17;;;28.00;83.30;;;;;;5074049;28;20453;-68
2021/08/15 07:58:14;;;;;;;14.77;9.13;;;28.20;79.40;;;;;;5074590;28;20546;-68
2021/08/15 08:00:41;;;;;;;13.37;8.40;;;28.30;79.20;;;;;;5073556;28;20483;-68
2021/08/15 08:03:08;;;;;;;13.87;8.97;;;28.40;79.50;;;;;;5074301;28;20451;-69
2021/08/15 08:05:37;;;;;;;23.97;8.73;;;28.60;78.10;;;;;;5073392;28;20511;-68
2021/08/15 08:08:05;;;;;;;15.47;7.90;;;28.70;77.90;;;;;;5074314;28;20442;-68
2021/08/15 08:10:32;;;;;;;16.97;9.00;;;28.80;77.60;;;;;;5074778;28;20919;-68
2021/08/15 08:13:06;;;;;;;12.73;8.67;;;28.90;78.10;;;;;;5073317;28;20446;-69
2021/08/15 08:15:33;;;;;;;13.90;8.10;;;29.10;78.80;;;;;;5073473;28;20521;-68
2021/08/15 08:18:00;;;;;;;11.93;7.93;;;29.30;78.00;;;;;;5073296;28;20437;-68
2021/08/15 08:20:28;;;;;;;18.20;8.60;;;29.50;75.80;;;;;;5073582;28;20596;-69
2021/08/15 08:22:56;;;;;;;13.93;9.03;;;29.60;76.30;;;;;;5070148;28;20444;-68
2021/08/15 08:25:23;;;;;;;16.80;9.30;;;29.80;74.40;;;;;;5073319;28;20440;-68
2021/08/15 08:27:50;;;;;;;12.90;8.03;;;29.90;73.90;;;;;;5072948;28;20546;-68
2021/08/15 08:30:17;;;;;;;10.83;8.10;;;30.10;71.30;;;;;;5073290;28;20522;-68
2021/08/15 08:32:44;;;;;;;14.40;8.37;;;30.20;68.40;;;;;;5074235;28;20519;-69
2021/08/15 08:35:11;;;;;;;12.93;7.47;;;30.20;68.30;;;;;;5072885;28;20531;-68
2021/08/15 08:37:38;;;;;;;13.03;6.93;;;30.40;69.00;;;;;;5074054;28;20526;-68
2021/08/15 08:40:08;;;;;;;17.83;7.80;;;30.50;68.80;;;;;;5072673;28;20518;-68
2021/08/15 08:42:35;;;;;;;16.60;9.73;;;30.60;68.60;;;;;;5073525;28;21017;-68
2021/08/15 08:45:03;;;;;;;14.63;7.50;;;30.80;69.10;;;;;;5073879;28;20440;-68
2021/08/15 08:47:30;;;;;;;14.70;7.83;;;31.00;67.60;;;;;;5072893;28;20435;-69
2021/08/15 08:49:59;;;;;;;14.97;8.30;;;31.10;67.40;;;;;;5069417;28;20531;-68
2021/08/15 08:52:29;;;;;;;13.43;8.27;;;31.30;63.50;;;;;;5073469;28;20532;-68
2021/08/15 08:54:56;;;;;;;12.23;8.30;;;31.40;66.00;;;;;;5073358;28;20432;-68
2021/08/15 08:57:25;;;;;;;11.47;7.77;;;31.60;67.30;;;;;;5071890;28;20527;-69
2021/08/15 08:59:52;;;;;;;12.83;7.20;;;31.70;62.70;;;;;;5073776;28;20982;-68
2021/08/15 09:02:20;;;;;;;14.03;7.73;;;31.80;58.90;;;;;;5073030;28;20440;-68
2021/08/15 09:04:48;;;;;;;16.83;8.93;;;31.90;58.60;;;;;;5073531;28;20448;-68
2021/08/15 09:07:16;;;;;;;15.53;8.50;;;32.00;59.20;;;;;;5068937;28;20503;-68
2021/08/15 09:09:52;;;;;;;17.50;8.53;;;32.10;57.90;;;;;;5072889;28;20471;-68
2021/08/15 09:12:20;;;;;;;18.03;7.47;;;32.20;59.60;;;;;;5072250;28;20431;-69
2021/08/15 09:15:06;;;;;;;14.37;8.10;;;32.20;59.30;;;;;;5073251;28;20443;-68
2021/08/15 09:17:35;;;;;;;16.00;8.20;;;32.30;59.60;;;;;;5072793;28;20457;-68
2021/08/15 09:20:03;;;;;;;15.93;8.70;;;32.50;59.60;;;;;;5072787;28;20483;-68
2021/08/15 09:22:31;;;;;;;18.33;9.43;;;32.60;58.90;;;;;;5072794;28;20494;-68
2021/08/15 09:25:02;;;;;;;15.10;7.80;;;32.70;57.20;;;;;;5072492;28;20439;-70
2021/08/15 09:27:31;;;;;;;12.97;8.10;;;32.90;58.10;;;;;;5068895;28;20460;-69
2021/08/15 09:30:19;;;;;;;11.33;9.53;;;33.00;56.60;;;;;;5072510;28;20490;-68
2021/08/15 09:32:49;;;;;;;10.50;8.23;;;33.10;57.00;;;;;;5069466;28;20946;-69
2021/08/15 09:35:24;;;;;;;14.13;7.57;;;33.20;55.80;;;;;;5072707;28;20440;-68
2021/08/15 09:38:01;;;;;;;11.83;7.90;;;33.40;57.20;;;;;;5067951;28;20439;-69
2021/08/15 09:40:31;;;;;;;13.80;7.47;;;33.60;54.90;;;;;;5072357;28;20494;-68
2021/08/15 09:43:00;;;;;;;13.33;8.30;;;33.70;56.90;;;;;;5072198;28;20964;-68
2021/08/15 09:45:46;;;;;;;17.30;9.10;;;33.80;56.50;;;;;;5072459;28;20432;-68
2021/08/15 09:48:26;;;;;;;14.10;8.40;;;33.90;56.00;;;;;;5072129;28;20462;-68
2021/08/15 09:51:15;;;;;;;9.90;7.43;;;33.90;55.60;;;;;;5072404;28;20428;-69
2021/08/15 09:53:45;;;;;;;21.40;8.33;;;34.10;56.10;;;;;;5072302;28;20432;-69
2021/08/15 09:56:13;;;;;;;13.37;8.60;;;34.20;56.40;;;;;;5072496;28;21455;-71
2021/08/15 09:58:40;;;;;;;14.90;7.83;;;34.20;55.60;;;;;;5072009;28;20444;-68
2021/08/15 10:01:10;;;;;;;13.07;7.90;;;34.30;53.30;;;;;;5071780;28;20610;-68
2021/08/15 10:03:41;;;;;;;17.73;9.23;;;34.40;54.80;;;;;;5071998;28;20443;-68
2021/08/15 10:06:14;;;;;;;15.50;8.70;;;34.60;54.10;;;;;;5071767;28;20523;-69
2021/08/15 10:08:42;;;;;;;13.43;8.37;;;34.70;53.50;;;;;;5071972;28;21013;-68
2021/08/15 10:11:09;;;;;;;16.87;7.93;;;34.90;53.20;;;;;;5071941;28;20529;-68
2021/08/15 10:13:36;;;;;;;16.70;7.93;;;35.00;52.00;;;;;;5071466;28;20428;-69
2021/08/15 10:16:07;;;;;;;15.57;8.40;;;35.10;52.10;;;;;;5071868;28;20476;-68
2021/08/15 10:18:40;;;;;;;19.23;7.83;;;35.20;53.90;;;;;;5071621;28;20472;-70
2021/08/15 10:21:13;;;;;;;17.63;8.57;;;35.40;52.10;;;;;;5071193;28;20571;-69
2021/08/15 10:23:43;;;;;;;16.40;8.93;;;35.60;52.40;;;;;;5071614;28;20989;-69
2021/08/15 10:26:41;;;;;;;15.90;9.37;;;35.80;52.20;;;;;;5066394;28;20471;-70
2021/08/15 10:29:44;;;;;;;15.80;9.33;;;36.10;51.10;;;;;;5069731;28;20461;-69
2021/08/15 10:32:17;;;;;;;11.33;7.50;;;36.20;50.90;;;;;;5067700;28;20807;-69
2021/08/15 10:35:16;;;;;;;16.53;8.00;;;36.40;48.80;;;;;;5068269;28;20451;-68
2021/08/15 10:37:44;;;;;;;13.03;7.70;;;36.50;48.10;;;;;;5066275;28;20831;-71
2021/08/15 10:40:51;;;;;;;14.93;7.90;;;36.70;47.20;;;;;;5067838;28;20567;-71
2021/08/15 10:43:51;;;;;;;16.83;9.20;;;36.70;46.90;;;;;;5061020;28;20930;-70
2021/08/15 10:46:21;;;;;;;13.57;7.67;;;36.70;46.30;;;;;;5068812;28;20448;-71
2021/08/15 10:48:52;;;;;;;13.70;8.80;;;36.50;47.40;;;;;;5069149;28;20444;-69
2021/08/15 10:51:46;;;;;;;14.40;8.77;;;36.50;47.80;;;;;;5069473;28;20871;-68
2021/08/15 10:54:47;;;;;;;19.33;9.23;;;36.40;47.90;;;;;;5056184;28;20443;-69
2021/08/15 10:57:37;;;;;;;12.50;8.40;;;36.20;49.30;;;;;;5064782;28;20436;-69
2021/08/15 11:00:54;;;;;;;8.30;7.30;;;36.30;49.20;;;;;;5069092;28;20476;-68
2021/08/15 11:03:34;;;;;;;14.13;7.83;;;36.30;47.40;;;;;;5032480;28;20817;-69
2021/08/15 11:06:03;;;;;;;13.40;7.90;;;36.40;47.00;;;;;;5070141;28;20440;-71
2021/08/15 11:08:55;;;;;;;15.83;8.60;;;36.40;46.30;;;;;;5068835;28;20440;-69
2021/08/15 11:11:30;;;;;;;12.60;8.30;;;36.50;46.20;;;;;;5068284;28;20860;-70
2021/08/15 11:14:26;;;;;;;9.90;7.23;;;36.50;46.40;;;;;;5069373;28;20490;-69
2021/08/15 11:16:58;;;;;;;12.83;7.30;;;36.50;46.50;;;;;;5067571;28;20487;-69
2021/08/15 11:19:30;;;;;;;19.40;7.77;;;36.30;47.40;;;;;;5069341;28;20523;-69
2021/08/15 11:22:29;;;;;;;15.00;7.80;;;36.20;46.30;;;;;;5069996;28;20535;-69
2021/08/15 11:25:00;;;;;;;14.73;7.87;;;36.10;46.80;;;;;;5069037;28;20853;-68
2021/08/15 11:27:36;;;;;;;12.13;7.80;;;36.10;47.90;;;;;;5070018;28;20471;-69
2021/08/15 11:30:12;;;;;;;12.50;7.73;;;36.00;46.70;;;;;;5070319;28;20431;-69
2021/08/15 11:32:39;;;;;;;13.00;7.70;;;35.90;47.10;;;;;;5070289;28;20554;-69
2021/08/15 11:35:08;;;;;;;12.17;7.50;;;35.80;45.60;;;;;;5069231;28;20490;-69
2021/08/15 11:37:38;;;;;;;13.87;8.27;;;35.90;45.80;;;;;;5069560;28;20479;-68
2021/08/15 11:40:17;;;;;;;14.73;7.83;;;36.00;44.70;;;;;;5069968;28;20488;-69
2021/08/15 11:42:55;;;;;;;12.90;7.30;;;35.90;47.30;;;;;;5067821;28;20431;-70
2021/08/15 11:45:28;;;;;;;10.70;8.40;;;35.90;47.10;;;;;;5069647;28;20440;-68
2021/08/15 11:47:55;;;;;;;13.90;7.90;;;35.90;46.80;;;;;;5070182;28;20475;-69
2021/08/15 11:50:22;;;;;;;11.40;7.90;;;35.70;46.10;;;;;;5069991;28;20791;-68
2021/08/15 11:52:50;;;;;;;10.63;7.63;;;35.70;47.30;;;;;;5068553;28;20448;-69
2021/08/15 11:55:24;;;;;;;15.70;8.00;;;35.70;47.50;;;;;;5069854;28;20471;-69
2021/08/15 11:57:53;;;;;;;16.63;7.73;;;35.70;47.00;;;;;;5068672;28;20474;-70
2021/08/15 12:00:31;;;;;;;9.23;6.90;;;35.70;47.60;;;;;;5069584;28;20487;-69
2021/08/15 12:03:08;;;;;;;15.10;7.80;;;35.80;46.30;;;;;;5071819;28;20443;-69
2021/08/15 12:05:38;;;;;;;12.87;7.30;;;35.80;46.40;;;;;;5072399;28;20949;-68
2021/08/15 12:08:08;;;;;;;13.20;7.83;;;35.80;46.20;;;;;;5072314;28;20447;-69
2021/08/15 12:10:50;;;;;;;12.67;7.70;;;35.80;44.20;;;;;;5070104;28;20628;-69
2021/08/15 12:13:23;;;;;;;12.13;8.40;;;35.70;47.20;;;;;;5070673;28;20440;-70
2021/08/15 12:16:07;;;;;;;13.20;8.23;;;35.80;48.10;;;;;;5072268;28;20505;-69
2021/08/15 12:18:40;;;;;;;13.70;6.60;;;36.00;46.80;;;;;;5071759;28;20452;-69
2021/08/15 12:21:20;;;;;;;17.30;7.60;;;36.10;45.80;;;;;;5070919;28;20586;-68
2021/08/15 12:24:03;;;;;;;14.63;8.40;;;36.20;45.20;;;;;;5071771;28;20439;-69
2021/08/15 12:26:34;;;;;;;13.43;7.67;;;36.20;44.50;;;;;;5071108;28;20901;-69
2021/08/15 12:29:02;;;;;;;14.50;7.53;;;36.20;46.20;;;;;;5071723;28;20479;-70
2021/08/15 12:31:31;;;;;;;11.87;8.10;;;36.30;47.30;;;;;;5071017;28;20509;-69
2021/08/15 12:34:06;;;;;;;13.27;7.97;;;36.30;46.70;;;;;;5070808;28;20476;-70
2021/08/15 12:36:42;;;;;;;10.80;7.30;;;36.40;46.40;;;;;;5071413;28;20988;-72
2021/08/15 12:39:09;;;;;;;10.40;7.40;;;36.40;47.10;;;;;;5071506;28;21224;-69
2021/08/15 12:41:50;;;;;;;14.43;7.80;;;36.40;47.60;;;;;;5070090;28;20856;-70
2021/08/15 12:44:20;;;;;;;14.80;7.83;;;36.40;46.70;;;;;;5067436;28;20436;-69
2021/08/15 12:47:05;;;;;;;12.93;8.07;;;36.40;46.90;;;;;;5071474;28;20482;-69
2021/08/15 12:49:38;;;;;;;13.00;7.90;;;36.40;46.10;;;;;;5070880;28;20502;-70
2021/08/15 12:52:14;;;;;;;17.37;7.70;;;36.40;46.00;;;;;;5071330;28;20440;-69